createdAt,value
2018-06-18T00:02:15.221Z,18.70
2018-06-18T00:04:43.377Z,18.60
2018-06-18T00:07:11.745Z,18.60
2018-06-18T00:09:39.928Z,18.60
2018-06-18T00:12:08.126Z,18.60
2018-06-18T00:14:36.309Z,18.60
2018-06-18T00:17:04.634Z,18.50
2018-06-18T00:22:00.753Z,18.60
2018-06-18T00:24:28.909Z,18.50
2018-06-18T00:26:57.090Z,18.50
2018-06-18T00:29:25.257Z,18.50
2018-06-18T00:31:53.431Z,18.50
2018-06-18T00:34:21.589Z,18.50
2018-06-18T00:36:49.765Z,18.50
2018-06-18T00:39:17.941Z,18.50
2018-06-18T00:41:46.200Z,18.50
2018-06-18T00:44:14.361Z,18.50
2018-06-18T00:46:42.520Z,18.50
2018-06-18T00:49:10.706Z,18.50
2018-06-18T00:51:38.861Z,18.40
2018-06-18T00:56:34.962Z,18.40
2018-06-18T00:59:03.150Z,18.40
2018-06-18T01:01:31.312Z,18.40
2018-06-18T01:03:59.498Z,18.40
2018-06-18T01:06:27.654Z,18.40
2018-06-18T01:08:55.829Z,18.40
2018-06-18T01:11:24.008Z,18.40
2018-06-18T01:13:52.221Z,18.30
2018-06-18T01:16:20.389Z,18.30
2018-06-18T01:18:48.567Z,18.20
2018-06-18T01:21:16.735Z,18.20
2018-06-18T01:23:54.986Z,18.20
2018-06-18T01:26:23.217Z,18.20
2018-06-18T01:28:51.387Z,18.20
2018-06-18T01:31:19.570Z,18.20
2018-06-18T01:33:48.049Z,18.20
2018-06-18T01:36:16.222Z,18.10
2018-06-18T01:38:44.387Z,18.10
2018-06-18T01:41:12.556Z,18.10
2018-06-18T01:43:40.734Z,18.10
2018-06-18T01:46:08.894Z,18.10
2018-06-18T01:48:37.049Z,18.10
2018-06-18T01:51:05.234Z,18.10
2018-06-18T01:53:33.404Z,18.10
2018-06-18T01:56:01.591Z,18.10
2018-06-18T01:58:29.761Z,18.10
2018-06-18T02:00:57.917Z,18.10
2018-06-18T02:03:26.071Z,18.10
2018-06-18T02:05:54.329Z,18.00
2018-06-18T02:08:22.486Z,18.00
2018-06-18T02:10:50.754Z,18.00
2018-06-18T02:13:18.986Z,18.00
2018-06-18T02:15:47.182Z,18.00
2018-06-18T02:18:15.346Z,18.00
2018-06-18T02:20:43.495Z,18.00
2018-06-18T02:23:11.744Z,18.00
2018-06-18T02:25:39.894Z,17.90
2018-06-18T02:28:13.564Z,17.90
2018-06-18T02:30:47.079Z,17.90
2018-06-18T02:34:22.385Z,17.90
2018-06-18T02:36:56.021Z,17.90
2018-06-18T02:39:24.179Z,17.90
2018-06-18T02:41:52.329Z,17.90
2018-06-18T02:44:20.477Z,17.90
2018-06-18T02:46:48.639Z,17.90
2018-06-18T02:49:16.776Z,17.90
2018-06-18T02:51:44.954Z,17.90
2018-06-18T02:54:13.106Z,17.90
2018-06-18T02:56:52.309Z,17.90
2018-06-18T02:59:20.563Z,17.90
2018-06-18T03:01:48.829Z,17.90
2018-06-18T03:04:16.972Z,17.90
2018-06-18T03:06:45.117Z,17.90
2018-06-18T03:09:13.411Z,17.90
2018-06-18T03:11:41.638Z,17.90
2018-06-18T03:14:10.125Z,17.90
2018-06-18T03:16:38.346Z,17.90
2018-06-18T03:19:11.929Z,17.90
2018-06-18T03:21:45.546Z,18.00
2018-06-18T03:24:19.245Z,18.00
2018-06-18T03:26:52.917Z,18.00
2018-06-18T03:31:52.415Z,18.00
2018-06-18T03:34:20.584Z,18.00
2018-06-18T03:36:48.743Z,18.00
2018-06-18T03:39:16.902Z,18.00
2018-06-18T03:41:47.341Z,18.00
2018-06-18T03:44:25.953Z,18.10
2018-06-18T03:46:54.660Z,18.10
2018-06-18T03:49:22.917Z,18.10
2018-06-18T03:51:51.084Z,18.10
2018-06-18T03:54:19.244Z,18.10
2018-06-18T03:56:47.396Z,18.10
2018-06-18T03:59:15.696Z,18.20
2018-06-18T04:04:25.384Z,18.30
2018-06-18T04:06:59.042Z,18.30
2018-06-18T04:09:32.593Z,18.30
2018-06-18T04:12:06.933Z,18.30
2018-06-18T04:14:35.408Z,18.30
2018-06-18T04:17:03.584Z,18.30
2018-06-18T04:19:31.764Z,18.30
2018-06-18T04:22:00.034Z,18.20
2018-06-18T04:24:28.194Z,18.20
2018-06-18T04:26:56.692Z,18.20
2018-06-18T04:29:24.905Z,18.20
2018-06-18T04:31:54.413Z,18.20
2018-06-18T04:34:41.170Z,18.20
2018-06-18T04:37:09.314Z,18.20
2018-06-18T04:39:37.499Z,18.20
2018-06-18T04:42:11.167Z,18.20
2018-06-18T04:44:44.863Z,18.20
2018-06-18T04:47:18.405Z,18.10
2018-06-18T04:49:51.996Z,18.20
2018-06-18T04:52:20.165Z,18.20
2018-06-18T04:54:48.341Z,18.20
2018-06-18T04:57:16.815Z,18.20
2018-06-18T04:59:48.864Z,18.20
2018-06-18T05:02:17.164Z,18.20
2018-06-18T05:04:45.309Z,18.20
2018-06-18T05:07:13.483Z,18.30
2018-06-18T05:10:04.167Z,18.30
2018-06-18T05:12:32.335Z,18.30
2018-06-18T05:17:28.577Z,18.30
2018-06-18T05:22:24.665Z,18.30
2018-06-18T05:24:53.426Z,18.30
2018-06-18T05:27:27.209Z,18.30
2018-06-18T05:29:56.571Z,18.30
2018-06-18T05:32:24.747Z,18.40
2018-06-18T05:34:52.921Z,18.30
2018-06-18T05:37:26.120Z,18.40
2018-06-18T05:39:54.293Z,18.40
2018-06-18T05:42:22.452Z,18.30
2018-06-18T05:44:50.602Z,18.30
2018-06-18T05:47:18.848Z,18.30
2018-06-18T05:49:46.996Z,18.20
2018-06-18T05:52:15.406Z,18.10
2018-06-18T05:54:43.633Z,18.10
2018-06-18T05:57:11.844Z,18.20
2018-06-18T05:59:39.985Z,18.20
2018-06-18T06:02:08.168Z,18.20
2018-06-18T06:04:36.324Z,18.30
2018-06-18T06:07:04.505Z,18.30
2018-06-18T06:09:32.705Z,18.30
2018-06-18T06:12:00.874Z,18.40
2018-06-18T06:14:29.021Z,18.40
2018-06-18T06:16:57.247Z,18.40
2018-06-18T06:19:25.365Z,18.40
2018-06-18T06:21:53.526Z,18.50
2018-06-18T06:24:21.681Z,18.50
2018-06-18T06:26:49.901Z,18.50
2018-06-18T06:29:18.084Z,18.50
2018-06-18T06:31:46.233Z,18.50
2018-06-18T06:34:14.452Z,18.50
2018-06-18T06:36:42.557Z,18.60
2018-06-18T06:39:11.199Z,18.60
2018-06-18T06:41:40.976Z,18.60
2018-06-18T06:44:09.228Z,18.60
2018-06-18T06:46:37.399Z,18.60
2018-06-18T06:49:05.579Z,18.60
2018-06-18T06:51:33.742Z,18.60
2018-06-18T06:54:01.922Z,18.60
2018-06-18T06:56:30.077Z,18.60
2018-06-18T06:58:58.262Z,18.60
2018-06-18T07:01:26.478Z,18.60
2018-06-18T07:03:54.614Z,18.60
2018-06-18T07:06:22.794Z,18.60
2018-06-18T07:08:50.974Z,18.60
2018-06-18T07:11:19.150Z,18.70
2018-06-18T07:13:47.310Z,18.70
2018-06-18T07:16:15.461Z,18.70
2018-06-18T07:18:43.771Z,18.70
2018-06-18T07:21:11.912Z,18.70
2018-06-18T07:23:40.090Z,18.80
2018-06-18T07:26:08.275Z,18.80
2018-06-18T07:28:36.401Z,18.80
2018-06-18T07:31:04.553Z,18.90
2018-06-18T07:33:32.745Z,18.90
2018-06-18T07:36:00.920Z,18.90
2018-06-18T07:38:29.132Z,19.00
2018-06-18T07:40:57.234Z,19.00
2018-06-18T07:43:25.429Z,19.00
2018-06-18T07:45:53.618Z,19.00
2018-06-18T07:48:21.773Z,19.10
2018-06-18T07:50:49.974Z,19.10
2018-06-18T07:53:18.132Z,19.10
2018-06-18T07:55:46.315Z,19.10
2018-06-18T07:58:14.459Z,19.20
2018-06-18T08:00:42.671Z,19.20
2018-06-18T08:03:10.822Z,19.20
2018-06-18T08:05:38.982Z,19.20
2018-06-18T08:08:07.142Z,19.20
2018-06-18T08:10:35.307Z,19.30
2018-06-18T08:13:03.463Z,19.30
2018-06-18T08:15:31.620Z,19.30
2018-06-18T08:20:27.697Z,19.40
2018-06-18T08:22:55.852Z,19.40
2018-06-18T08:25:24.018Z,19.40
2018-06-18T08:27:52.173Z,19.40
2018-06-18T08:32:48.280Z,19.50
2018-06-18T08:35:16.427Z,19.50
2018-06-18T08:37:44.636Z,19.50
2018-06-18T08:40:12.785Z,19.50
2018-06-18T08:42:40.946Z,19.60
2018-06-18T08:45:09.099Z,19.60
2018-06-18T08:47:37.247Z,19.70
2018-06-18T08:50:10.771Z,19.70
2018-06-18T08:52:44.295Z,19.70
2018-06-18T08:55:17.956Z,19.80
2018-06-18T08:57:51.651Z,19.90
2018-06-18T09:00:25.229Z,19.90
2018-06-18T09:02:58.720Z,20.00
2018-06-18T09:05:32.212Z,20.00
2018-06-18T09:08:06.518Z,20.00
2018-06-18T09:10:34.889Z,20.00
2018-06-18T09:13:03.041Z,20.10
2018-06-18T09:17:59.131Z,20.20
2018-06-18T09:20:27.281Z,20.30
2018-06-18T09:22:55.431Z,20.30
2018-06-18T09:25:23.591Z,20.30
2018-06-18T09:27:51.733Z,20.30
2018-06-18T09:30:19.874Z,20.30
2018-06-18T09:32:48.037Z,20.40
2018-06-18T09:35:16.172Z,20.40
2018-06-18T09:37:44.326Z,20.40
2018-06-18T09:40:12.474Z,20.40
2018-06-18T09:42:40.614Z,20.40
2018-06-18T09:45:08.773Z,20.40
2018-06-18T09:47:36.965Z,20.50
2018-06-18T09:52:43.733Z,20.50
2018-06-18T09:55:17.401Z,20.50
2018-06-18T09:57:50.961Z,20.50
2018-06-18T10:00:36.070Z,20.50
2018-06-18T10:03:04.221Z,20.60
2018-06-18T10:05:32.369Z,20.60
2018-06-18T10:08:00.539Z,20.60
2018-06-18T10:10:28.670Z,20.60
2018-06-18T10:12:56.834Z,20.70
2018-06-18T10:15:24.966Z,20.70
2018-06-18T10:20:21.012Z,20.80
2018-06-18T10:22:49.177Z,20.80
2018-06-18T10:25:17.344Z,20.80
2018-06-18T10:27:45.503Z,20.80
2018-06-18T10:30:13.653Z,20.80
2018-06-18T10:32:47.449Z,20.80
2018-06-18T10:35:21.102Z,20.80
2018-06-18T10:37:54.505Z,20.90
2018-06-18T10:40:28.148Z,20.90
2018-06-18T10:43:01.554Z,21.00
2018-06-18T10:45:29.705Z,20.90
2018-06-18T10:47:57.842Z,20.90
2018-06-18T10:52:53.913Z,20.90
2018-06-18T10:55:22.122Z,21.00
2018-06-18T10:57:50.266Z,20.90
2018-06-18T11:00:22.791Z,20.90
2018-06-18T11:02:51.037Z,20.90
2018-06-18T11:05:19.190Z,21.00
2018-06-18T11:07:47.334Z,21.00
2018-06-18T11:10:15.500Z,20.90
2018-06-18T11:12:44.469Z,21.00
2018-06-18T11:15:12.620Z,21.00
2018-06-18T11:17:45.953Z,21.00
2018-06-18T11:20:19.471Z,21.00
2018-06-18T11:22:53.159Z,21.00
2018-06-18T11:25:26.542Z,21.00
2018-06-18T11:27:54.688Z,21.00
2018-06-18T11:30:22.865Z,21.10
2018-06-18T11:32:51.022Z,21.10
2018-06-18T11:35:19.216Z,21.10
2018-06-18T11:37:47.392Z,21.10
2018-06-18T11:40:15.537Z,21.10
2018-06-18T11:42:43.720Z,21.20
2018-06-18T11:45:11.863Z,21.20
2018-06-18T11:47:40.040Z,21.20
2018-06-18T11:50:08.222Z,21.30
2018-06-18T11:52:36.374Z,21.30
2018-06-18T11:55:04.484Z,21.30
2018-06-18T11:57:32.649Z,21.30
2018-06-18T12:00:06.197Z,21.30
2018-06-18T12:02:39.868Z,21.30
2018-06-18T12:05:13.449Z,21.30
2018-06-18T12:07:47.024Z,21.30
2018-06-18T12:10:15.173Z,21.30
2018-06-18T12:12:43.350Z,21.30
2018-06-18T12:15:11.489Z,21.30
2018-06-18T12:17:39.783Z,21.40
2018-06-18T12:20:07.933Z,21.40
2018-06-18T12:22:36.089Z,21.40
2018-06-18T12:25:04.262Z,21.50
2018-06-18T12:27:34.042Z,21.50
2018-06-18T12:30:02.196Z,21.50
2018-06-18T12:32:30.393Z,21.50
2018-06-18T12:34:58.543Z,21.50
2018-06-18T12:37:26.705Z,21.50
2018-06-18T12:39:54.935Z,21.50
2018-06-18T12:42:23.126Z,21.50
2018-06-18T12:44:56.661Z,21.50
2018-06-18T12:47:30.226Z,21.50
2018-06-18T12:50:03.547Z,21.50
2018-06-18T12:52:37.528Z,21.60
2018-06-18T12:55:11.352Z,21.50
2018-06-18T12:57:39.514Z,21.60
2018-06-18T13:00:07.674Z,21.50
2018-06-18T13:02:40.395Z,21.50
2018-06-18T13:05:08.578Z,21.60
2018-06-18T13:07:36.746Z,21.60
2018-06-18T13:10:04.961Z,21.60
2018-06-18T13:12:33.176Z,21.60
2018-06-18T13:15:01.333Z,21.50
2018-06-18T13:17:29.489Z,21.60
2018-06-18T13:19:57.656Z,21.60
2018-06-18T13:22:25.897Z,21.60
2018-06-18T13:24:54.272Z,21.60
2018-06-18T13:27:27.993Z,21.60
2018-06-18T13:29:56.250Z,21.70
2018-06-18T13:32:24.401Z,21.60
2018-06-18T13:34:52.592Z,21.60
2018-06-18T13:37:26.314Z,21.60
2018-06-18T13:39:59.977Z,21.60
2018-06-18T13:42:33.304Z,21.50
2018-06-18T13:45:06.683Z,21.60
2018-06-18T13:47:40.402Z,21.50
2018-06-18T13:50:08.574Z,21.50
2018-06-18T13:52:36.791Z,21.50
2018-06-18T13:55:05.106Z,21.50
2018-06-18T13:57:33.263Z,21.50
2018-06-18T14:00:01.441Z,21.50
2018-06-18T14:02:29.625Z,21.40
2018-06-18T14:04:57.861Z,21.40
2018-06-18T14:07:25.994Z,21.40
2018-06-18T14:09:54.194Z,21.30
2018-06-18T14:12:22.426Z,21.30
2018-06-18T14:14:50.768Z,21.30
2018-06-18T14:17:18.913Z,21.20
2018-06-18T14:19:52.611Z,21.20
2018-06-18T14:22:21.078Z,21.20
2018-06-18T14:24:49.266Z,21.20
2018-06-18T14:27:17.444Z,21.10
2018-06-18T14:29:51.072Z,21.10
2018-06-18T14:32:24.721Z,21.10
2018-06-18T14:34:58.078Z,21.10
2018-06-18T14:37:31.712Z,21.10
2018-06-18T14:40:04.039Z,21.10
2018-06-18T14:42:32.181Z,21.10
2018-06-18T14:45:00.401Z,21.10
2018-06-18T14:47:28.581Z,21.10
2018-06-18T14:49:56.706Z,21.10
2018-06-18T14:52:24.885Z,21.10
2018-06-18T14:54:53.017Z,21.10
2018-06-18T14:57:21.165Z,21.10
2018-06-18T15:00:24.718Z,21.10
2018-06-18T15:02:52.921Z,21.10
2018-06-18T15:05:21.541Z,21.10
2018-06-18T15:07:49.682Z,21.00
2018-06-18T15:10:17.887Z,21.00
2018-06-18T15:12:49.342Z,21.00
2018-06-18T15:15:23.067Z,21.00
2018-06-18T15:17:51.553Z,21.00
2018-06-18T15:20:20.768Z,21.00
2018-06-18T15:23:01.828Z,21.00
2018-06-18T15:25:48.921Z,21.10
2018-06-18T15:28:17.113Z,21.10
2018-06-18T15:30:45.257Z,21.10
2018-06-18T15:33:13.404Z,21.10
2018-06-18T15:35:41.543Z,21.10
2018-06-18T15:38:09.728Z,21.10
2018-06-18T15:40:37.857Z,21.20
2018-06-18T15:43:06.016Z,21.20
2018-06-18T15:45:34.182Z,21.20
2018-06-18T15:48:02.363Z,21.20
2018-06-18T15:50:30.544Z,21.20
2018-06-18T15:52:58.652Z,21.20
2018-06-18T15:55:26.798Z,21.20
2018-06-18T15:57:55.027Z,21.20
2018-06-18T16:00:23.174Z,21.20
2018-06-18T16:02:51.338Z,21.20
2018-06-18T16:05:19.568Z,21.20
2018-06-18T16:07:47.813Z,21.20
2018-06-18T16:10:15.978Z,21.20
2018-06-18T16:12:44.368Z,21.20
2018-06-18T16:15:12.532Z,21.20
2018-06-18T16:17:40.681Z,21.20
2018-06-18T16:20:08.866Z,21.20
2018-06-18T16:22:37.243Z,21.20
2018-06-18T16:25:05.454Z,21.20
2018-06-18T16:27:33.557Z,21.20
2018-06-18T16:30:02.019Z,21.20
2018-06-18T16:32:30.157Z,21.20
2018-06-18T16:37:26.326Z,21.30
2018-06-18T16:39:54.517Z,21.30
2018-06-18T16:42:22.690Z,21.30
2018-06-18T16:44:50.955Z,21.40
2018-06-18T16:47:19.128Z,21.40
2018-06-18T16:49:47.270Z,21.40
2018-06-18T16:52:15.434Z,21.40
2018-06-18T16:54:43.918Z,21.40
2018-06-18T16:57:12.072Z,21.40
2018-06-18T16:59:40.238Z,21.40
2018-06-18T17:02:08.430Z,21.50
2018-06-18T17:04:36.617Z,21.50
2018-06-18T17:07:04.852Z,21.50
2018-06-18T17:09:32.997Z,21.50
2018-06-18T17:12:01.177Z,21.50
2018-06-18T17:14:29.344Z,21.50
2018-06-18T17:16:57.490Z,21.50
2018-06-18T17:19:25.645Z,21.50
2018-06-18T17:21:53.796Z,21.50
2018-06-18T17:24:21.966Z,21.50
2018-06-18T17:26:50.121Z,21.50
2018-06-18T17:29:18.278Z,21.50
2018-06-18T17:31:46.569Z,21.50
2018-06-18T17:34:14.694Z,21.50
2018-06-18T17:36:42.922Z,21.50
2018-06-18T17:39:12.679Z,21.50
2018-06-18T17:41:40.881Z,21.50
2018-06-18T17:44:09.047Z,21.50
2018-06-18T17:49:05.967Z,21.50
2018-06-18T17:51:34.139Z,21.50
2018-06-18T17:54:02.307Z,21.50
2018-06-18T17:56:30.490Z,21.50
2018-06-18T17:58:58.633Z,21.50
2018-06-18T18:01:26.810Z,21.50
2018-06-18T18:03:55.214Z,21.50
2018-06-18T18:06:23.451Z,21.50
2018-06-18T18:08:51.609Z,21.50
2018-06-18T18:11:19.972Z,21.50
2018-06-18T18:13:48.279Z,21.50
2018-06-18T18:16:16.466Z,21.50
2018-06-18T18:18:44.889Z,21.50
2018-06-18T18:21:13.053Z,21.50
2018-06-18T18:23:41.205Z,21.50
2018-06-18T18:26:09.570Z,21.50
2018-06-18T18:28:37.830Z,21.50
2018-06-18T18:31:05.963Z,21.50
2018-06-18T18:33:34.225Z,21.50
2018-06-18T18:36:02.711Z,21.50
2018-06-18T18:38:30.908Z,21.50
2018-06-18T18:40:59.124Z,21.50
2018-06-18T18:43:27.307Z,21.50
2018-06-18T18:45:55.497Z,21.50
2018-06-18T18:48:23.674Z,21.50
2018-06-18T18:50:51.841Z,21.50
2018-06-18T18:53:20.117Z,21.50
2018-06-18T18:56:02.126Z,21.50
2018-06-18T18:58:57.856Z,21.50
2018-06-18T19:01:26.434Z,21.50
2018-06-18T19:03:57.200Z,21.50
2018-06-18T19:06:25.598Z,21.50
2018-06-18T19:08:53.795Z,21.50
2018-06-18T19:11:21.971Z,21.50
2018-06-18T19:13:50.201Z,21.50
2018-06-18T19:16:18.386Z,21.50
2018-06-18T19:18:53.125Z,21.50
2018-06-18T19:21:21.335Z,21.50
2018-06-18T19:23:49.540Z,21.50
2018-06-18T19:26:17.706Z,21.50
2018-06-18T19:28:45.884Z,21.50
2018-06-18T19:31:20.781Z,21.50
2018-06-18T19:33:55.775Z,21.50
2018-06-18T19:36:24.006Z,21.50
2018-06-18T19:38:52.202Z,21.50
2018-06-18T19:41:20.357Z,21.50
2018-06-18T19:43:48.607Z,21.40
2018-06-18T19:46:18.861Z,21.40
2018-06-18T19:48:54.518Z,21.40
2018-06-18T19:51:22.712Z,21.30
2018-06-18T19:53:51.574Z,21.30
2018-06-18T19:56:19.911Z,21.30
2018-06-18T19:58:48.042Z,21.20
2018-06-18T20:01:16.231Z,21.20
2018-06-18T20:03:44.413Z,21.20
2018-06-18T20:06:12.565Z,21.10
2018-06-18T20:08:40.899Z,21.10
2018-06-18T20:11:09.077Z,21.10
2018-06-18T20:13:37.266Z,21.10
2018-06-18T20:16:05.575Z,21.00
2018-06-18T20:18:33.831Z,21.00
2018-06-18T20:21:02.006Z,21.00
2018-06-18T20:23:30.355Z,20.90
2018-06-18T20:26:04.476Z,20.90
2018-06-18T20:28:32.646Z,20.90
2018-06-18T20:31:00.821Z,20.80
2018-06-18T20:33:29.688Z,20.80
2018-06-18T20:36:05.917Z,20.80
2018-06-18T20:38:34.153Z,20.70
2018-06-18T20:41:02.368Z,20.70
2018-06-18T20:43:34.670Z,20.70
2018-06-18T20:46:02.862Z,20.70
2018-06-18T20:48:31.061Z,20.70
2018-06-18T20:50:59.249Z,20.60
2018-06-18T20:53:27.412Z,20.60
2018-06-18T20:58:23.544Z,20.60
2018-06-18T21:00:51.713Z,20.60
2018-06-18T21:03:19.877Z,20.60
2018-06-18T21:05:48.041Z,20.50
2018-06-18T21:08:16.204Z,20.50
2018-06-18T21:10:44.365Z,20.50
2018-06-18T21:13:12.525Z,20.50
2018-06-18T21:15:40.692Z,20.50
2018-06-18T21:18:08.842Z,20.50
2018-06-18T21:20:37.008Z,20.50
2018-06-18T21:23:05.170Z,20.50
2018-06-18T21:25:33.371Z,20.50
2018-06-18T21:28:01.654Z,20.40
2018-06-18T21:30:29.817Z,20.40
2018-06-18T21:32:57.985Z,20.40
2018-06-18T21:35:26.137Z,20.40
2018-06-18T21:37:54.341Z,20.40
2018-06-18T21:40:22.506Z,20.30
2018-06-18T21:42:50.662Z,20.30
2018-06-18T21:45:21.994Z,20.30
2018-06-18T21:47:50.229Z,20.30
2018-06-18T21:50:18.817Z,20.20
2018-06-18T21:52:46.987Z,20.20
2018-06-18T21:55:15.333Z,20.20
2018-06-18T21:57:43.476Z,20.10
2018-06-18T22:00:18.533Z,20.10
2018-06-18T22:02:46.689Z,20.10
2018-06-18T22:05:14.858Z,20.00
2018-06-18T22:07:43.766Z,20.00
2018-06-18T22:10:12.472Z,20.00
2018-06-18T22:12:40.653Z,20.00
2018-06-18T22:15:09.521Z,19.90
2018-06-18T22:17:37.682Z,19.90
2018-06-18T22:20:05.841Z,19.90
2018-06-18T22:22:34.019Z,19.90
2018-06-18T22:25:02.195Z,19.90
2018-06-18T22:27:30.369Z,19.90
2018-06-18T22:29:58.534Z,19.90
2018-06-18T22:32:26.716Z,19.90
2018-06-18T22:34:54.894Z,19.90
2018-06-18T22:37:23.060Z,19.90
2018-06-18T22:39:51.229Z,19.80
2018-06-18T22:42:19.416Z,19.80
2018-06-18T22:44:47.578Z,19.80
2018-06-18T22:47:15.767Z,19.80
2018-06-18T22:49:43.942Z,19.80
2018-06-18T22:52:12.201Z,19.80
2018-06-18T22:54:45.942Z,19.70
2018-06-18T22:57:14.262Z,19.70
2018-06-18T22:59:42.433Z,19.70
2018-06-18T23:02:11.361Z,19.70
2018-06-18T23:04:39.525Z,19.70
2018-06-18T23:07:07.939Z,19.70
2018-06-18T23:09:36.098Z,19.70
2018-06-18T23:12:04.291Z,19.60
2018-06-18T23:14:32.492Z,19.60
2018-06-18T23:17:00.662Z,19.60
2018-06-18T23:19:28.814Z,19.60
2018-06-18T23:21:56.969Z,19.60
2018-06-18T23:24:25.133Z,19.60
2018-06-18T23:26:53.309Z,19.60
2018-06-18T23:29:21.986Z,19.60
2018-06-18T23:31:50.162Z,19.60
2018-06-18T23:34:18.321Z,19.50
2018-06-18T23:36:46.497Z,19.50
2018-06-18T23:39:14.660Z,19.50
2018-06-18T23:41:47.052Z,19.50
2018-06-18T23:44:15.238Z,19.50
2018-06-18T23:46:43.414Z,19.50
2018-06-18T23:49:11.581Z,19.50
2018-06-18T23:51:39.813Z,19.50
2018-06-18T23:54:08.065Z,19.50
2018-06-18T23:56:36.238Z,19.50
2018-06-18T23:59:04.414Z,19.40
